sensor_id;sensor_type;location;lat;lon;timestamp;P1;durP1;ratioP1;P2;durP2;ratioP2
15629;SDS011;7914;50.842;0.166;2023-07-20T00:01:17;3.97;;;1.30;;
15629;SDS011;7914;50.842;0.166;2023-07-20T00:03:43;3.45;;;1.20;;
15629;SDS011;7914;50.842;0.166;2023-07-20T00:06:08;3.30;;;1.40;;
15629;SDS011;7914;50.842;0.166;2023-07-20T00:08:34;3.35;;;1.42;;
15629;SDS011;7914;50.842;0.166;2023-07-20T00:11:00;3.15;;;1.30;;
15629;SDS011;7914;50.842;0.166;2023-07-20T00:13:25;5.93;;;1.42;;
15629;SDS011;7914;50.842;0.166;2023-07-20T00:15:51;4.88;;;1.85;;
15629;SDS011;7914;50.842;0.166;2023-07-20T00:18:17;4.40;;;2.28;;
15629;SDS011;7914;50.842;0.166;2023-07-20T00:20:46;4.70;;;1.90;;
15629;SDS011;7914;50.842;0.166;2023-07-20T00:23:12;6.40;;;1.60;;
15629;SDS011;7914;50.842;0.166;2023-07-20T00:25:38;3.97;;;1.42;;
15629;SDS011;7914;50.842;0.166;2023-07-20T00:28:03;3.00;;;1.20;;
15629;SDS011;7914;50.842;0.166;2023-07-20T00:30:29;6.10;;;1.80;;
15629;SDS011;7914;50.842;0.166;2023-07-20T00:32:55;7.55;;;1.55;;
15629;SDS011;7914;50.842;0.166;2023-07-20T00:35:20;5.57;;;1.67;;
15629;SDS011;7914;50.842;0.166;2023-07-20T00:37:46;5.15;;;1.98;;
15629;SDS011;7914;50.842;0.166;2023-07-20T00:40:12;4.07;;;1.50;;
15629;SDS011;7914;50.842;0.166;2023-07-20T00:42:37;4.35;;;1.33;;
15629;SDS011;7914;50.842;0.166;2023-07-20T00:45:04;4.10;;;1.65;;
15629;SDS011;7914;50.842;0.166;2023-07-20T00:47:30;4.97;;;1.45;;
15629;SDS011;7914;50.842;0.166;2023-07-20T00:49:57;3.08;;;1.17;;
15629;SDS011;7914;50.842;0.166;2023-07-20T00:52:23;4.13;;;1.80;;
15629;SDS011;7914;50.842;0.166;2023-07-20T00:54:52;3.20;;;1.40;;
15629;SDS011;7914;50.842;0.166;2023-07-20T00:57:21;2.80;;;1.27;;
15629;SDS011;7914;50.842;0.166;2023-07-20T00:59:48;4.03;;;1.50;;
15629;SDS011;7914;50.842;0.166;2023-07-20T01:02:14;4.70;;;1.50;;
15629;SDS011;7914;50.842;0.166;2023-07-20T01:04:39;3.50;;;1.55;;
15629;SDS011;7914;50.842;0.166;2023-07-20T01:12:43;7.13;;;1.55;;
15629;SDS011;7914;50.842;0.166;2023-07-20T01:15:13;3.03;;;1.20;;
15629;SDS011;7914;50.842;0.166;2023-07-20T01:17:39;4.35;;;1.45;;
15629;SDS011;7914;50.842;0.166;2023-07-20T01:20:08;5.05;;;1.33;;
15629;SDS011;7914;50.842;0.166;2023-07-20T01:22:52;4.20;;;1.52;;
15629;SDS011;7914;50.842;0.166;2023-07-20T01:31:39;4.40;;;1.60;;
15629;SDS011;7914;50.842;0.166;2023-07-20T01:34:07;5.45;;;1.70;;
15629;SDS011;7914;50.842;0.166;2023-07-20T01:36:37;5.13;;;1.60;;
15629;SDS011;7914;50.842;0.166;2023-07-20T01:39:03;3.72;;;1.50;;
15629;SDS011;7914;50.842;0.166;2023-07-20T01:41:30;4.72;;;1.80;;
15629;SDS011;7914;50.842;0.166;2023-07-20T01:43:59;4.10;;;1.60;;
15629;SDS011;7914;50.842;0.166;2023-07-20T01:46:25;4.05;;;1.50;;
15629;SDS011;7914;50.842;0.166;2023-07-20T01:48:51;3.63;;;1.70;;
15629;SDS011;7914;50.842;0.166;2023-07-20T01:51:17;5.78;;;1.58;;
15629;SDS011;7914;50.842;0.166;2023-07-20T01:53:43;4.15;;;1.60;;
15629;SDS011;7914;50.842;0.166;2023-07-20T01:56:09;5.05;;;1.80;;
15629;SDS011;7914;50.842;0.166;2023-07-20T01:58:37;4.20;;;1.73;;
15629;SDS011;7914;50.842;0.166;2023-07-20T02:01:03;4.95;;;1.88;;
15629;SDS011;7914;50.842;0.166;2023-07-20T02:03:29;4.93;;;1.65;;
15629;SDS011;7914;50.842;0.166;2023-07-20T02:05:54;3.95;;;1.52;;
15629;SDS011;7914;50.842;0.166;2023-07-20T02:08:22;4.05;;;1.85;;
15629;SDS011;7914;50.842;0.166;2023-07-20T02:10:47;6.43;;;1.70;;
15629;SDS011;7914;50.842;0.166;2023-07-20T02:13:14;4.15;;;1.48;;
15629;SDS011;7914;50.842;0.166;2023-07-20T02:15:40;4.18;;;1.63;;
15629;SDS011;7914;50.842;0.166;2023-07-20T02:18:07;4.60;;;1.75;;
15629;SDS011;7914;50.842;0.166;2023-07-20T02:20:33;5.13;;;1.35;;
15629;SDS011;7914;50.842;0.166;2023-07-20T02:22:59;5.30;;;1.70;;
15629;SDS011;7914;50.842;0.166;2023-07-20T02:25:25;4.47;;;1.40;;
15629;SDS011;7914;50.842;0.166;2023-07-20T02:27:50;3.40;;;1.45;;
15629;SDS011;7914;50.842;0.166;2023-07-20T02:30:17;6.68;;;1.80;;
15629;SDS011;7914;50.842;0.166;2023-07-20T02:32:43;5.57;;;1.90;;
15629;SDS011;7914;50.842;0.166;2023-07-20T02:35:13;6.65;;;1.77;;
15629;SDS011;7914;50.842;0.166;2023-07-20T02:37:40;5.10;;;2.00;;
15629;SDS011;7914;50.842;0.166;2023-07-20T02:40:05;9.43;;;2.78;;
15629;SDS011;7914;50.842;0.166;2023-07-20T02:42:32;6.70;;;1.83;;
15629;SDS011;7914;50.842;0.166;2023-07-20T02:44:58;5.18;;;1.88;;
15629;SDS011;7914;50.842;0.166;2023-07-20T02:47:24;3.80;;;1.55;;
15629;SDS011;7914;50.842;0.166;2023-07-20T02:49:50;4.85;;;2.00;;
15629;SDS011;7914;50.842;0.166;2023-07-20T02:52:16;5.20;;;1.95;;
15629;SDS011;7914;50.842;0.166;2023-07-20T02:54:41;6.47;;;1.88;;
15629;SDS011;7914;50.842;0.166;2023-07-20T02:57:07;4.78;;;1.52;;
15629;SDS011;7914;50.842;0.166;2023-07-20T02:59:33;5.50;;;2.08;;
15629;SDS011;7914;50.842;0.166;2023-07-20T03:01:58;4.65;;;2.00;;
15629;SDS011;7914;50.842;0.166;2023-07-20T03:04:27;5.35;;;1.80;;
15629;SDS011;7914;50.842;0.166;2023-07-20T03:06:53;4.55;;;1.95;;
15629;SDS011;7914;50.842;0.166;2023-07-20T03:09:18;6.57;;;2.30;;
15629;SDS011;7914;50.842;0.166;2023-07-20T03:11:44;5.35;;;2.13;;
15629;SDS011;7914;50.842;0.166;2023-07-20T03:14:10;5.88;;;1.88;;
15629;SDS011;7914;50.842;0.166;2023-07-20T03:16:36;7.72;;;2.03;;
15629;SDS011;7914;50.842;0.166;2023-07-20T03:19:02;5.15;;;2.13;;
15629;SDS011;7914;50.842;0.166;2023-07-20T03:21:28;5.38;;;1.90;;
15629;SDS011;7914;50.842;0.166;2023-07-20T03:23:54;4.20;;;1.80;;
15629;SDS011;7914;50.842;0.166;2023-07-20T03:26:20;5.32;;;2.08;;
15629;SDS011;7914;50.842;0.166;2023-07-20T03:28:46;6.10;;;2.13;;
15629;SDS011;7914;50.842;0.166;2023-07-20T03:31:11;7.38;;;2.00;;
15629;SDS011;7914;50.842;0.166;2023-07-20T03:33:37;4.43;;;1.90;;
15629;SDS011;7914;50.842;0.166;2023-07-20T03:36:03;5.15;;;1.90;;
15629;SDS011;7914;50.842;0.166;2023-07-20T03:38:29;5.53;;;2.25;;
15629;SDS011;7914;50.842;0.166;2023-07-20T03:40:56;4.50;;;2.00;;
15629;SDS011;7914;50.842;0.166;2023-07-20T03:43:23;6.97;;;2.13;;
15629;SDS011;7914;50.842;0.166;2023-07-20T03:45:49;6.80;;;2.60;;
15629;SDS011;7914;50.842;0.166;2023-07-20T03:48:19;4.43;;;1.75;;
15629;SDS011;7914;50.842;0.166;2023-07-20T03:50:48;7.85;;;2.35;;
15629;SDS011;7914;50.842;0.166;2023-07-20T03:53:14;4.50;;;1.90;;
15629;SDS011;7914;50.842;0.166;2023-07-20T03:55:50;5.45;;;1.95;;
15629;SDS011;7914;50.842;0.166;2023-07-20T03:58:17;5.32;;;2.10;;
15629;SDS011;7914;50.842;0.166;2023-07-20T04:00:50;4.18;;;1.92;;
15629;SDS011;7914;50.842;0.166;2023-07-20T04:03:17;5.97;;;1.95;;
15629;SDS011;7914;50.842;0.166;2023-07-20T04:05:44;5.40;;;2.40;;
15629;SDS011;7914;50.842;0.166;2023-07-20T04:08:10;7.18;;;2.42;;
15629;SDS011;7914;50.842;0.166;2023-07-20T04:10:36;5.30;;;1.90;;
15629;SDS011;7914;50.842;0.166;2023-07-20T04:13:02;5.20;;;1.90;;
15629;SDS011;7914;50.842;0.166;2023-07-20T04:15:29;5.78;;;2.47;;
15629;SDS011;7914;50.842;0.166;2023-07-20T04:17:55;6.70;;;2.15;;
15629;SDS011;7914;50.842;0.166;2023-07-20T04:20:21;6.35;;;2.38;;
15629;SDS011;7914;50.842;0.166;2023-07-20T04:22:48;5.57;;;2.20;;
15629;SDS011;7914;50.842;0.166;2023-07-20T04:25:14;4.88;;;2.15;;
15629;SDS011;7914;50.842;0.166;2023-07-20T04:27:40;6.03;;;2.10;;
15629;SDS011;7914;50.842;0.166;2023-07-20T04:30:07;5.18;;;2.10;;
15629;SDS011;7914;50.842;0.166;2023-07-20T04:32:33;6.20;;;1.98;;
15629;SDS011;7914;50.842;0.166;2023-07-20T04:34:59;5.65;;;2.38;;
15629;SDS011;7914;50.842;0.166;2023-07-20T04:37:25;4.80;;;2.03;;
15629;SDS011;7914;50.842;0.166;2023-07-20T04:39:50;5.28;;;2.10;;
15629;SDS011;7914;50.842;0.166;2023-07-20T04:42:16;7.05;;;2.05;;
15629;SDS011;7914;50.842;0.166;2023-07-20T04:44:42;6.88;;;2.30;;
15629;SDS011;7914;50.842;0.166;2023-07-20T04:47:07;7.63;;;2.40;;
15629;SDS011;7914;50.842;0.166;2023-07-20T04:49:36;7.68;;;2.22;;
15629;SDS011;7914;50.842;0.166;2023-07-20T04:52:02;5.80;;;2.25;;
15629;SDS011;7914;50.842;0.166;2023-07-20T04:54:28;4.75;;;2.00;;
15629;SDS011;7914;50.842;0.166;2023-07-20T04:56:53;6.57;;;2.28;;
15629;SDS011;7914;50.842;0.166;2023-07-20T04:59:19;5.40;;;1.88;;
15629;SDS011;7914;50.842;0.166;2023-07-20T05:01:45;5.97;;;2.10;;
15629;SDS011;7914;50.842;0.166;2023-07-20T05:04:10;4.68;;;2.05;;
15629;SDS011;7914;50.842;0.166;2023-07-20T05:06:36;7.40;;;2.10;;
15629;SDS011;7914;50.842;0.166;2023-07-20T05:09:03;5.85;;;2.25;;
15629;SDS011;7914;50.842;0.166;2023-07-20T05:11:30;4.88;;;2.15;;
15629;SDS011;7914;50.842;0.166;2023-07-20T05:20:57;5.25;;;2.15;;
15629;SDS011;7914;50.842;0.166;2023-07-20T05:23:23;4.75;;;1.88;;
15629;SDS011;7914;50.842;0.166;2023-07-20T05:25:56;5.05;;;1.70;;
15629;SDS011;7914;50.842;0.166;2023-07-20T05:28:22;5.47;;;2.17;;
15629;SDS011;7914;50.842;0.166;2023-07-20T05:30:49;5.55;;;2.10;;
15629;SDS011;7914;50.842;0.166;2023-07-20T05:33:19;4.28;;;1.75;;
15629;SDS011;7914;50.842;0.166;2023-07-20T05:35:45;6.03;;;1.90;;
15629;SDS011;7914;50.842;0.166;2023-07-20T05:38:11;9.05;;;2.20;;
15629;SDS011;7914;50.842;0.166;2023-07-20T05:40:37;5.90;;;1.80;;
15629;SDS011;7914;50.842;0.166;2023-07-20T05:43:03;4.20;;;1.63;;
15629;SDS011;7914;50.842;0.166;2023-07-20T05:45:29;5.25;;;1.63;;
15629;SDS011;7914;50.842;0.166;2023-07-20T05:47:54;5.03;;;1.73;;
15629;SDS011;7914;50.842;0.166;2023-07-20T05:50:20;4.35;;;2.03;;
15629;SDS011;7914;50.842;0.166;2023-07-20T05:52:46;4.65;;;1.80;;
15629;SDS011;7914;50.842;0.166;2023-07-20T05:55:12;6.13;;;1.88;;
15629;SDS011;7914;50.842;0.166;2023-07-20T05:57:38;4.60;;;1.70;;
15629;SDS011;7914;50.842;0.166;2023-07-20T06:00:07;7.32;;;1.83;;
15629;SDS011;7914;50.842;0.166;2023-07-20T06:02:34;5.05;;;1.77;;
15629;SDS011;7914;50.842;0.166;2023-07-20T06:04:59;6.35;;;2.03;;
15629;SDS011;7914;50.842;0.166;2023-07-20T06:07:25;5.90;;;1.92;;
15629;SDS011;7914;50.842;0.166;2023-07-20T06:09:51;3.90;;;1.50;;
15629;SDS011;7914;50.842;0.166;2023-07-20T06:12:17;4.45;;;1.92;;
15629;SDS011;7914;50.842;0.166;2023-07-20T06:14:54;5.25;;;1.80;;
15629;SDS011;7914;50.842;0.166;2023-07-20T06:17:20;4.68;;;1.98;;
15629;SDS011;7914;50.842;0.166;2023-07-20T06:19:46;4.68;;;1.80;;
15629;SDS011;7914;50.842;0.166;2023-07-20T06:22:12;4.22;;;1.40;;
15629;SDS011;7914;50.842;0.166;2023-07-20T06:24:37;5.03;;;1.90;;
15629;SDS011;7914;50.842;0.166;2023-07-20T06:27:03;5.05;;;1.77;;
15629;SDS011;7914;50.842;0.166;2023-07-20T06:29:30;6.22;;;1.90;;
15629;SDS011;7914;50.842;0.166;2023-07-20T06:31:56;6.28;;;1.73;;
15629;SDS011;7914;50.842;0.166;2023-07-20T06:34:22;6.72;;;2.10;;
15629;SDS011;7914;50.842;0.166;2023-07-20T06:36:47;5.13;;;1.83;;
15629;SDS011;7914;50.842;0.166;2023-07-20T06:39:14;5.28;;;1.52;;
15629;SDS011;7914;50.842;0.166;2023-07-20T06:41:40;4.70;;;1.80;;
15629;SDS011;7914;50.842;0.166;2023-07-20T06:44:05;5.47;;;1.60;;
15629;SDS011;7914;50.842;0.166;2023-07-20T06:46:31;5.03;;;1.85;;
15629;SDS011;7914;50.842;0.166;2023-07-20T06:48:57;4.15;;;1.70;;
15629;SDS011;7914;50.842;0.166;2023-07-20T06:51:22;4.18;;;1.60;;
15629;SDS011;7914;50.842;0.166;2023-07-20T06:53:48;5.57;;;1.80;;
15629;SDS011;7914;50.842;0.166;2023-07-20T06:56:14;5.70;;;1.75;;
15629;SDS011;7914;50.842;0.166;2023-07-20T06:58:39;3.92;;;1.50;;
15629;SDS011;7914;50.842;0.166;2023-07-20T07:01:05;3.55;;;1.40;;
15629;SDS011;7914;50.842;0.166;2023-07-20T07:03:32;5.45;;;1.85;;
15629;SDS011;7914;50.842;0.166;2023-07-20T07:05:59;4.22;;;1.50;;
15629;SDS011;7914;50.842;0.166;2023-07-20T07:08:25;4.10;;;1.67;;
15629;SDS011;7914;50.842;0.166;2023-07-20T07:10:50;4.53;;;1.58;;
15629;SDS011;7914;50.842;0.166;2023-07-20T07:13:17;3.83;;;1.48;;
15629;SDS011;7914;50.842;0.166;2023-07-20T07:15:43;3.83;;;1.80;;
15629;SDS011;7914;50.842;0.166;2023-07-20T07:18:09;3.30;;;1.45;;
15629;SDS011;7914;50.842;0.166;2023-07-20T07:20:35;5.00;;;1.40;;
15629;SDS011;7914;50.842;0.166;2023-07-20T07:23:01;3.30;;;1.30;;
15629;SDS011;7914;50.842;0.166;2023-07-20T07:25:27;2.90;;;1.30;;
15629;SDS011;7914;50.842;0.166;2023-07-20T07:27:53;5.15;;;1.50;;
15629;SDS011;7914;50.842;0.166;2023-07-20T07:30:21;3.67;;;1.40;;
15629;SDS011;7914;50.842;0.166;2023-07-20T07:32:47;3.60;;;1.40;;
15629;SDS011;7914;50.842;0.166;2023-07-20T07:35:12;3.13;;;1.20;;
15629;SDS011;7914;50.842;0.166;2023-07-20T07:37:38;4.32;;;1.23;;
15629;SDS011;7914;50.842;0.166;2023-07-20T07:40:04;4.07;;;1.40;;
15629;SDS011;7914;50.842;0.166;2023-07-20T07:42:31;3.78;;;1.27;;
15629;SDS011;7914;50.842;0.166;2023-07-20T07:44:57;4.20;;;1.40;;
15629;SDS011;7914;50.842;0.166;2023-07-20T07:47:22;3.53;;;1.20;;
15629;SDS011;7914;50.842;0.166;2023-07-20T07:49:48;5.35;;;1.42;;
15629;SDS011;7914;50.842;0.166;2023-07-20T07:52:15;3.60;;;1.33;;
15629;SDS011;7914;50.842;0.166;2023-07-20T07:54:40;4.88;;;1.70;;
15629;SDS011;7914;50.842;0.166;2023-07-20T07:57:06;3.80;;;1.30;;
15629;SDS011;7914;50.842;0.166;2023-07-20T07:59:32;4.72;;;1.27;;
15629;SDS011;7914;50.842;0.166;2023-07-20T08:02:02;2.75;;;1.30;;
15629;SDS011;7914;50.842;0.166;2023-07-20T08:04:29;2.58;;;0.95;;
15629;SDS011;7914;50.842;0.166;2023-07-20T08:06:55;3.35;;;1.35;;
15629;SDS011;7914;50.842;0.166;2023-07-20T08:09:21;3.17;;;0.90;;
15629;SDS011;7914;50.842;0.166;2023-07-20T08:11:47;3.33;;;1.20;;
15629;SDS011;7914;50.842;0.166;2023-07-20T08:14:13;3.00;;;0.93;;
15629;SDS011;7914;50.842;0.166;2023-07-20T08:16:39;4.30;;;1.25;;
15629;SDS011;7914;50.842;0.166;2023-07-20T08:19:04;2.92;;;1.23;;
15629;SDS011;7914;50.842;0.166;2023-07-20T08:21:30;3.28;;;1.02;;
15629;SDS011;7914;50.842;0.166;2023-07-20T08:23:56;3.83;;;1.10;;
15629;SDS011;7914;50.842;0.166;2023-07-20T08:26:23;4.05;;;0.90;;
15629;SDS011;7914;50.842;0.166;2023-07-20T08:28:49;2.80;;;1.10;;
15629;SDS011;7914;50.842;0.166;2023-07-20T08:31:14;2.00;;;0.90;;
15629;SDS011;7914;50.842;0.166;2023-07-20T08:33:40;4.22;;;1.02;;
15629;SDS011;7914;50.842;0.166;2023-07-20T08:36:06;2.20;;;0.70;;
15629;SDS011;7914;50.842;0.166;2023-07-20T08:38:32;1.98;;;0.85;;
15629;SDS011;7914;50.842;0.166;2023-07-20T08:40:58;2.65;;;1.05;;
15629;SDS011;7914;50.842;0.166;2023-07-20T08:43:25;2.75;;;0.90;;
15629;SDS011;7914;50.842;0.166;2023-07-20T08:45:53;5.30;;;1.10;;
15629;SDS011;7914;50.842;0.166;2023-07-20T08:48:24;3.80;;;1.10;;
15629;SDS011;7914;50.842;0.166;2023-07-20T08:50:50;3.10;;;1.00;;
15629;SDS011;7914;50.842;0.166;2023-07-20T08:55:44;3.63;;;1.15;;
15629;SDS011;7914;50.842;0.166;2023-07-20T08:58:12;3.05;;;1.00;;
15629;SDS011;7914;50.842;0.166;2023-07-20T09:00:39;3.25;;;1.00;;
15629;SDS011;7914;50.842;0.166;2023-07-20T09:03:06;3.22;;;1.10;;
15629;SDS011;7914;50.842;0.166;2023-07-20T09:05:33;3.03;;;1.00;;
15629;SDS011;7914;50.842;0.166;2023-07-20T09:08:00;6.38;;;1.52;;
15629;SDS011;7914;50.842;0.166;2023-07-20T09:10:28;3.40;;;1.08;;
15629;SDS011;7914;50.842;0.166;2023-07-20T09:12:54;3.00;;;1.17;;
15629;SDS011;7914;50.842;0.166;2023-07-20T09:15:21;2.00;;;0.90;;
15629;SDS011;7914;50.842;0.166;2023-07-20T09:17:48;4.93;;;1.30;;
15629;SDS011;7914;50.842;0.166;2023-07-20T09:20:18;2.50;;;0.88;;
15629;SDS011;7914;50.842;0.166;2023-07-20T09:22:43;1.98;;;0.90;;
15629;SDS011;7914;50.842;0.166;2023-07-20T09:25:14;3.83;;;0.93;;
15629;SDS011;7914;50.842;0.166;2023-07-20T09:27:47;3.70;;;1.20;;
15629;SDS011;7914;50.842;0.166;2023-07-20T09:30:14;2.75;;;1.00;;
15629;SDS011;7914;50.842;0.166;2023-07-20T09:35:19;3.58;;;1.02;;
15629;SDS011;7914;50.842;0.166;2023-07-20T09:37:58;2.80;;;1.08;;
15629;SDS011;7914;50.842;0.166;2023-07-20T09:40:25;2.08;;;0.88;;
15629;SDS011;7914;50.842;0.166;2023-07-20T09:42:52;2.20;;;0.80;;
15629;SDS011;7914;50.842;0.166;2023-07-20T09:45:28;3.78;;;1.20;;
15629;SDS011;7914;50.842;0.166;2023-07-20T09:48:14;4.43;;;1.30;;
15629;SDS011;7914;50.842;0.166;2023-07-20T09:50:41;4.13;;;1.15;;
15629;SDS011;7914;50.842;0.166;2023-07-20T09:53:08;2.25;;;0.93;;
15629;SDS011;7914;50.842;0.166;2023-07-20T09:55:40;4.63;;;1.27;;
15629;SDS011;7914;50.842;0.166;2023-07-20T09:58:10;7.90;;;1.60;;
15629;SDS011;7914;50.842;0.166;2023-07-20T10:00:37;3.53;;;1.30;;
15629;SDS011;7914;50.842;0.166;2023-07-20T10:03:04;4.55;;;1.35;;
15629;SDS011;7914;50.842;0.166;2023-07-20T10:05:34;3.10;;;1.45;;
15629;SDS011;7914;50.842;0.166;2023-07-20T10:08:02;2.53;;;1.25;;
15629;SDS011;7914;50.842;0.166;2023-07-20T10:10:31;3.53;;;1.20;;
15629;SDS011;7914;50.842;0.166;2023-07-20T10:12:59;3.67;;;1.55;;
15629;SDS011;7914;50.842;0.166;2023-07-20T10:15:28;4.22;;;1.60;;
15629;SDS011;7914;50.842;0.166;2023-07-20T10:18:03;4.80;;;1.45;;
15629;SDS011;7914;50.842;0.166;2023-07-20T10:20:40;5.93;;;1.52;;
15629;SDS011;7914;50.842;0.166;2023-07-20T10:23:06;4.88;;;2.08;;
15629;SDS011;7914;50.842;0.166;2023-07-20T10:25:32;4.07;;;1.42;;
15629;SDS011;7914;50.842;0.166;2023-07-20T10:28:03;6.10;;;1.70;;
15629;SDS011;7914;50.842;0.166;2023-07-20T10:30:31;4.53;;;1.67;;
15629;SDS011;7914;50.842;0.166;2023-07-20T10:32:59;4.78;;;1.30;;
15629;SDS011;7914;50.842;0.166;2023-07-20T10:35:27;4.72;;;1.52;;
15629;SDS011;7914;50.842;0.166;2023-07-20T10:42:50;3.83;;;1.63;;
15629;SDS011;7914;50.842;0.166;2023-07-20T10:45:19;4.20;;;1.33;;
15629;SDS011;7914;50.842;0.166;2023-07-20T10:47:45;4.25;;;1.48;;
15629;SDS011;7914;50.842;0.166;2023-07-20T10:50:11;4.07;;;1.60;;
15629;SDS011;7914;50.842;0.166;2023-07-20T10:52:38;2.92;;;1.40;;
15629;SDS011;7914;50.842;0.166;2023-07-20T10:55:14;4.60;;;1.52;;
15629;SDS011;7914;50.842;0.166;2023-07-20T10:57:41;3.30;;;1.40;;
15629;SDS011;7914;50.842;0.166;2023-07-20T11:00:10;3.28;;;1.30;;
15629;SDS011;7914;50.842;0.166;2023-07-20T11:07:57;6.07;;;1.50;;
15629;SDS011;7914;50.842;0.166;2023-07-20T11:10:23;4.32;;;1.50;;
15629;SDS011;7914;50.842;0.166;2023-07-20T11:18:12;4.18;;;1.70;;
15629;SDS011;7914;50.842;0.166;2023-07-20T11:20:38;4.18;;;1.30;;
15629;SDS011;7914;50.842;0.166;2023-07-20T11:23:05;4.57;;;1.52;;
15629;SDS011;7914;50.842;0.166;2023-07-20T11:25:38;3.75;;;1.50;;
15629;SDS011;7914;50.842;0.166;2023-07-20T11:28:08;4.53;;;1.70;;
15629;SDS011;7914;50.842;0.166;2023-07-20T11:30:36;4.45;;;1.50;;
15629;SDS011;7914;50.842;0.166;2023-07-20T11:33:02;4.55;;;1.80;;
15629;SDS011;7914;50.842;0.166;2023-07-20T11:35:28;5.00;;;1.75;;
15629;SDS011;7914;50.842;0.166;2023-07-20T11:37:54;3.88;;;1.48;;
15629;SDS011;7914;50.842;0.166;2023-07-20T11:40:21;2.85;;;1.27;;
15629;SDS011;7914;50.842;0.166;2023-07-20T11:42:50;3.70;;;1.52;;
15629;SDS011;7914;50.842;0.166;2023-07-20T11:45:17;4.38;;;1.73;;
15629;SDS011;7914;50.842;0.166;2023-07-20T11:47:43;3.63;;;1.42;;
15629;SDS011;7914;50.842;0.166;2023-07-20T11:50:09;5.38;;;1.88;;
15629;SDS011;7914;50.842;0.166;2023-07-20T11:52:36;4.00;;;1.45;;
15629;SDS011;7914;50.842;0.166;2023-07-20T11:55:02;5.40;;;1.75;;
15629;SDS011;7914;50.842;0.166;2023-07-20T11:57:29;4.38;;;1.70;;
15629;SDS011;7914;50.842;0.166;2023-07-20T12:00:00;4.80;;;1.80;;
15629;SDS011;7914;50.842;0.166;2023-07-20T12:02:30;5.88;;;2.40;;
15629;SDS011;7914;50.842;0.166;2023-07-20T12:04:56;3.75;;;1.38;;
15629;SDS011;7914;50.842;0.166;2023-07-20T12:07:23;4.43;;;1.60;;
15629;SDS011;7914;50.842;0.166;2023-07-20T12:10:06;4.15;;;1.60;;
15629;SDS011;7914;50.842;0.166;2023-07-20T12:12:43;4.47;;;1.27;;
15629;SDS011;7914;50.842;0.166;2023-07-20T12:15:16;3.80;;;1.50;;
15629;SDS011;7914;50.842;0.166;2023-07-20T12:17:48;3.47;;;1.52;;
15629;SDS011;7914;50.842;0.166;2023-07-20T12:20:29;3.55;;;1.40;;
15629;SDS011;7914;50.842;0.166;2023-07-20T12:23:00;4.55;;;1.50;;
15629;SDS011;7914;50.842;0.166;2023-07-20T12:25:36;5.80;;;1.80;;
15629;SDS011;7914;50.842;0.166;2023-07-20T12:28:06;3.13;;;1.20;;
15629;SDS011;7914;50.842;0.166;2023-07-20T12:30:36;3.53;;;1.33;;
15629;SDS011;7914;50.842;0.166;2023-07-20T12:33:03;6.95;;;1.95;;
15629;SDS011;7914;50.842;0.166;2023-07-20T12:35:29;3.67;;;1.20;;
15629;SDS011;7914;50.842;0.166;2023-07-20T12:37:56;2.72;;;1.20;;
15629;SDS011;7914;50.842;0.166;2023-07-20T12:40:22;4.43;;;1.50;;
15629;SDS011;7914;50.842;0.166;2023-07-20T12:42:48;3.38;;;1.27;;
15629;SDS011;7914;50.842;0.166;2023-07-20T12:45:13;4.40;;;1.67;;
15629;SDS011;7914;50.842;0.166;2023-07-20T12:47:39;5.60;;;1.60;;
15629;SDS011;7914;50.842;0.166;2023-07-20T12:50:07;4.18;;;1.90;;
15629;SDS011;7914;50.842;0.166;2023-07-20T12:52:36;5.88;;;1.80;;
15629;SDS011;7914;50.842;0.166;2023-07-20T12:55:03;5.18;;;1.60;;
15629;SDS011;7914;50.842;0.166;2023-07-20T12:57:30;4.13;;;1.40;;
15629;SDS011;7914;50.842;0.166;2023-07-20T12:59:55;4.35;;;1.42;;
15629;SDS011;7914;50.842;0.166;2023-07-20T13:02:21;4.72;;;1.70;;
15629;SDS011;7914;50.842;0.166;2023-07-20T13:04:47;4.53;;;1.75;;
15629;SDS011;7914;50.842;0.166;2023-07-20T13:07:12;3.50;;;1.35;;
15629;SDS011;7914;50.842;0.166;2023-07-20T13:09:38;5.88;;;1.63;;
15629;SDS011;7914;50.842;0.166;2023-07-20T13:12:04;3.38;;;1.30;;
15629;SDS011;7914;50.842;0.166;2023-07-20T13:14:30;2.90;;;1.35;;
15629;SDS011;7914;50.842;0.166;2023-07-20T13:16:55;4.82;;;1.50;;
15629;SDS011;7914;50.842;0.166;2023-07-20T13:19:21;4.10;;;1.52;;
15629;SDS011;7914;50.842;0.166;2023-07-20T13:21:47;3.20;;;1.15;;
15629;SDS011;7914;50.842;0.166;2023-07-20T13:24:13;3.25;;;1.10;;
15629;SDS011;7914;50.842;0.166;2023-07-20T13:26:39;4.00;;;1.33;;
15629;SDS011;7914;50.842;0.166;2023-07-20T13:29:04;3.17;;;1.02;;
15629;SDS011;7914;50.842;0.166;2023-07-20T13:31:30;3.42;;;1.30;;
15629;SDS011;7914;50.842;0.166;2023-07-20T13:33:56;4.35;;;1.40;;
15629;SDS011;7914;50.842;0.166;2023-07-20T13:36:23;5.25;;;1.15;;
15629;SDS011;7914;50.842;0.166;2023-07-20T13:38:49;2.38;;;0.93;;
15629;SDS011;7914;50.842;0.166;2023-07-20T13:41:14;3.55;;;1.25;;
15629;SDS011;7914;50.842;0.166;2023-07-20T13:43:41;1.67;;;1.00;;
15629;SDS011;7914;50.842;0.166;2023-07-20T13:46:07;3.35;;;1.05;;
15629;SDS011;7914;50.842;0.166;2023-07-20T13:48:33;2.65;;;1.08;;
15629;SDS011;7914;50.842;0.166;2023-07-20T13:50:59;2.75;;;1.00;;
15629;SDS011;7914;50.842;0.166;2023-07-20T13:53:24;2.95;;;1.00;;
15629;SDS011;7914;50.842;0.166;2023-07-20T13:55:50;3.78;;;1.20;;
15629;SDS011;7914;50.842;0.166;2023-07-20T13:58:17;3.33;;;1.05;;
15629;SDS011;7914;50.842;0.166;2023-07-20T14:00:43;1.75;;;0.98;;
15629;SDS011;7914;50.842;0.166;2023-07-20T14:03:08;3.35;;;1.17;;
15629;SDS011;7914;50.842;0.166;2023-07-20T14:05:34;2.97;;;0.90;;
15629;SDS011;7914;50.842;0.166;2023-07-20T14:08:00;2.55;;;1.00;;
15629;SDS011;7914;50.842;0.166;2023-07-20T14:10:26;4.40;;;1.10;;
15629;SDS011;7914;50.842;0.166;2023-07-20T14:12:51;3.13;;;1.10;;
15629;SDS011;7914;50.842;0.166;2023-07-20T14:15:17;2.80;;;0.98;;
15629;SDS011;7914;50.842;0.166;2023-07-20T14:17:44;3.45;;;1.38;;
15629;SDS011;7914;50.842;0.166;2023-07-20T14:20:10;1.98;;;0.88;;
15629;SDS011;7914;50.842;0.166;2023-07-20T14:22:36;2.47;;;0.80;;
15629;SDS011;7914;50.842;0.166;2023-07-20T14:25:02;4.18;;;1.15;;
15629;SDS011;7914;50.842;0.166;2023-07-20T14:27:28;3.50;;;1.17;;
15629;SDS011;7914;50.842;0.166;2023-07-20T14:29:53;3.72;;;1.50;;
15629;SDS011;7914;50.842;0.166;2023-07-20T14:32:20;2.65;;;1.15;;
15629;SDS011;7914;50.842;0.166;2023-07-20T14:34:45;3.40;;;1.23;;
15629;SDS011;7914;50.842;0.166;2023-07-20T14:37:11;4.50;;;1.30;;
15629;SDS011;7914;50.842;0.166;2023-07-20T14:39:38;2.72;;;1.05;;
15629;SDS011;7914;50.842;0.166;2023-07-20T14:42:03;4.93;;;0.90;;
15629;SDS011;7914;50.842;0.166;2023-07-20T14:44:30;2.75;;;1.20;;
15629;SDS011;7914;50.842;0.166;2023-07-20T14:46:56;3.10;;;1.00;;
15629;SDS011;7914;50.842;0.166;2023-07-20T14:49:21;3.00;;;1.20;;
15629;SDS011;7914;50.842;0.166;2023-07-20T14:51:47;2.88;;;1.13;;
15629;SDS011;7914;50.842;0.166;2023-07-20T14:54:14;2.88;;;0.85;;
15629;SDS011;7914;50.842;0.166;2023-07-20T14:56:45;3.08;;;0.90;;
15629;SDS011;7914;50.842;0.166;2023-07-20T14:59:15;4.72;;;1.20;;
15629;SDS011;7914;50.842;0.166;2023-07-20T15:01:40;2.83;;;1.27;;
15629;SDS011;7914;50.842;0.166;2023-07-20T15:04:06;3.33;;;1.05;;
15629;SDS011;7914;50.842;0.166;2023-07-20T15:06:31;2.75;;;1.10;;
15629;SDS011;7914;50.842;0.166;2023-07-20T15:08:57;5.80;;;1.02;;
15629;SDS011;7914;50.842;0.166;2023-07-20T15:11:23;6.20;;;1.52;;
15629;SDS011;7914;50.842;0.166;2023-07-20T15:13:49;3.33;;;1.40;;
15629;SDS011;7914;50.842;0.166;2023-07-20T15:16:14;3.63;;;1.20;;
15629;SDS011;7914;50.842;0.166;2023-07-20T15:18:40;3.78;;;1.13;;
15629;SDS011;7914;50.842;0.166;2023-07-20T15:21:06;4.80;;;1.17;;
15629;SDS011;7914;50.842;0.166;2023-07-20T15:23:31;3.50;;;1.30;;
15629;SDS011;7914;50.842;0.166;2023-07-20T15:25:57;5.63;;;1.50;;
15629;SDS011;7914;50.842;0.166;2023-07-20T15:28:23;5.15;;;1.45;;
15629;SDS011;7914;50.842;0.166;2023-07-20T15:30:48;2.00;;;1.00;;
15629;SDS011;7914;50.842;0.166;2023-07-20T15:33:16;3.30;;;1.00;;
15629;SDS011;7914;50.842;0.166;2023-07-20T15:35:42;5.50;;;1.23;;
15629;SDS011;7914;50.842;0.166;2023-07-20T15:38:09;3.28;;;0.95;;